Time;durP1;ratioP1;P1;durP2;ratioP2;P2;SDS_P1;SDS_P2;PMS_P1;PMS_P2;Temp;Humidity;BMP_temperature;BMP_pressure;BME280_temperature;BME280_humidity;BME280_pressure;Samples;Min_cycle;Max_cycle;Signal;HPM_P1;HPM_P2
2021/01/24 10:37:04;;;;;;;28.08;6.13;;;;;;;;;;4159895;28;20371;-62
2021/01/24 10:39:24;;;;;;;16.17;5.40;;;;;;;;;;4125468;28;20062;-60
2021/01/24 10:41:48;;;;;;;19.27;7.07;;;;;;;;;;4148522;28;20056;-63
2021/01/24 10:44:09;;;;;;;21.85;8.73;;;;;;;;;;4158153;28;20487;-62
2021/01/24 10:46:32;;;;;;;13.98;8.40;;;;;;;;;;4157657;28;20079;-63
2021/01/24 10:48:55;;;;;;;12.65;7.45;;;;;;;;;;4159528;28;20060;-62
2021/01/24 10:51:16;;;;;;;9.18;7.13;;;;;;;;;;4144022;28;20073;-61
2021/01/24 10:53:37;;;;;;;10.60;6.40;;;;;;;;;;4149292;28;20057;-61
2021/01/24 10:56:00;;;;;;;6.80;5.50;;;;;;;;;;4152717;28;20133;-62
2021/01/24 10:58:21;;;;;;;6.93;5.70;;;;;;;;;;4148994;28;20130;-61
2021/01/24 11:00:44;;;;;;;11.02;5.45;;;;;;;;;;4139753;28;20114;-61
2021/01/24 11:03:08;;;;;;;6.88;5.32;;;;;;;;;;4139379;28;20092;-61
2021/01/24 11:05:29;;;;;;;6.45;5.18;;;;;;;;;;4125015;28;20157;-61
2021/01/24 11:07:53;;;;;;;6.35;4.53;;;;;;;;;;4138831;28;20519;-61
2021/01/24 11:10:17;;;;;;;5.13;4.20;;;;;;;;;;4139494;28;20103;-62
2021/01/24 11:12:40;;;;;;;5.13;4.55;;;;;;;;;;4139017;28;20064;-62
2021/01/24 11:15:00;;;;;;;6.43;4.70;;;;;;;;;;4139325;28;20060;-62
2021/01/24 11:17:21;;;;;;;7.50;4.63;;;;;;;;;;4153505;28;20442;-62
2021/01/24 11:19:44;;;;;;;5.20;4.70;;;;;;;;;;4154484;28;20081;-61
2021/01/24 11:22:07;;;;;;;6.78;3.90;;;;;;;;;;4194459;28;20089;-63
2021/01/24 11:24:28;;;;;;;4.80;4.10;;;;;;;;;;4154730;28;20640;-62
2021/01/24 11:26:52;;;;;;;4.82;3.45;;;;;;;;;;4210807;28;20051;-63
2021/01/24 11:29:13;;;;;;;4.28;3.45;;;;;;;;;;4210225;28;20080;-64
2021/01/24 11:31:34;;;;;;;4.03;3.65;;;;;;;;;;4156483;28;20155;-63
2021/01/24 11:33:55;;;;;;;;;;;;;;;;;;4137911;28;20138;-64
2021/01/24 11:36:21;;;;;;;3.58;2.78;;;;;;;;;;4143352;28;20012;-59
2021/01/24 11:38:45;;;;;;;4.05;3.00;;;;;;;;;;4155819;27;20191;-62
2021/01/24 11:41:06;;;;;;;3.42;3.13;;;;;;;;;;4134696;28;20138;-64
2021/01/24 11:43:30;;;;;;;3.00;2.70;;;;;;;;;;4141311;28;20183;-62
2021/01/24 11:45:51;;;;;;;3.47;2.75;;;;;;;;;;4146628;28;20065;-61
2021/01/24 11:48:12;;;;;;;3.65;2.35;;;;;;;;;;4123287;28;20101;-61
2021/01/24 11:50:32;;;;;;;3.17;2.65;;;;;;;;;;4141528;28;20061;-59
2021/01/24 11:52:53;;;;;;;3.05;2.30;;;;;;;;;;4140390;28;20053;-59
2021/01/24 11:55:14;;;;;;;2.58;2.25;;;;;;;;;;4125382;28;20061;-58
2021/01/24 11:57:37;;;;;;;10.07;2.60;;;;;;;;;;4134683;28;20479;-58
2021/01/24 11:59:59;;;;;;;14.25;2.85;;;;;;;;;;4132318;28;20077;-60
2021/01/24 12:02:21;;;;;;;9.73;3.00;;;;;;;;;;4125752;28;20057;-60
2021/01/24 12:04:45;;;;;;;5.65;2.35;;;;;;;;;;4140129;28;20060;-60
2021/01/24 12:07:06;;;;;;;4.18;2.20;;;;;;;;;;4140375;28;20064;-61
2021/01/24 12:09:27;;;;;;;8.27;2.55;;;;;;;;;;4124777;28;20852;-60
2021/01/24 12:11:47;;;;;;;7.43;2.95;;;;;;;;;;4140783;28;20077;-60
2021/01/24 12:14:10;;;;;;;6.18;2.08;;;;;;;;;;4133442;28;20076;-62
2021/01/24 12:16:32;;;;;;;6.57;2.00;;;;;;;;;;4125717;28;20140;-60
2021/01/24 12:18:55;;;;;;;4.65;2.30;;;;;;;;;;4145985;28;20065;-59
2021/01/24 12:21:16;;;;;;;4.60;2.28;;;;;;;;;;4206136;28;20054;-60
2021/01/24 12:23:39;;;;;;;7.38;2.40;;;;;;;;;;4189181;28;20110;-64
2021/01/24 12:26:00;;;;;;;6.75;2.40;;;;;;;;;;4153077;28;20056;-62
2021/01/24 12:28:24;;;;;;;7.75;2.70;;;;;;;;;;4141973;28;20061;-62
2021/01/24 12:30:45;;;;;;;4.60;2.10;;;;;;;;;;4133028;28;20108;-60
2021/01/24 12:33:11;;;;;;;5.95;2.03;;;;;;;;;;4144241;28;20064;-65
2021/01/24 12:35:32;;;;;;;3.22;2.20;;;;;;;;;;4148136;28;20065;-67
2021/01/24 12:37:53;;;;;;;4.97;1.90;;;;;;;;;;4133383;28;20061;-63
2021/01/24 12:40:17;;;;;;;4.43;2.00;;;;;;;;;;4153107;28;20085;-62
2021/01/24 12:42:40;;;;;;;2.92;1.70;;;;;;;;;;4164532;28;20064;-61
2021/01/24 12:45:00;;;;;;;3.13;2.00;;;;;;;;;;4151502;28;20055;-63
2021/01/24 12:47:24;;;;;;;2.33;1.70;;;;;;;;;;4150643;28;20421;-63
2021/01/24 12:49:45;;;;;;;4.07;1.60;;;;;;;;;;4145736;28;20566;-63
2021/01/24 12:52:08;;;;;;;3.28;1.80;;;;;;;;;;4162761;28;20118;-58
2021/01/24 12:54:29;;;;;;;6.15;1.83;;;;;;;;;;4211067;28;20137;-61
2021/01/24 12:56:53;;;;;;;2.47;1.52;;;;;;;;;;4153343;28;20049;-60
2021/01/24 12:59:14;;;;;;;4.82;1.88;;;;;;;;;;4122979;28;20692;-60
2021/01/24 13:01:38;;;;;;;3.47;1.65;;;;;;;;;;4129923;28;20072;-60
2021/01/24 13:03:59;;;;;;;3.10;1.58;;;;;;;;;;4109145;28;20133;-60
2021/01/24 13:06:20;;;;;;;2.75;1.48;;;;;;;;;;4124275;28;20115;-60
2021/01/24 13:08:41;;;;;;;4.00;1.60;;;;;;;;;;4124928;28;20077;-60
2021/01/24 13:11:02;;;;;;;2.85;1.60;;;;;;;;;;4112830;28;20405;-60
2021/01/24 13:13:22;;;;;;;2.10;1.33;;;;;;;;;;4125362;28;20110;-59
2021/01/24 13:15:46;;;;;;;1.85;1.30;;;;;;;;;;4138846;28;20111;-60
2021/01/24 13:18:09;;;;;;;4.35;1.52;;;;;;;;;;4140654;28;20767;-60
2021/01/24 13:20:33;;;;;;;2.22;1.67;;;;;;;;;;4129920;28;20137;-59
2021/01/24 13:22:58;;;;;;;3.08;1.70;;;;;;;;;;4213501;28;20055;-59
2021/01/24 13:25:22;;;;;;;3.30;1.55;;;;;;;;;;4185325;28;20056;-61
2021/01/24 13:27:43;;;;;;;4.38;1.67;;;;;;;;;;4140631;28;20057;-64
2021/01/24 13:30:07;;;;;;;2.85;1.67;;;;;;;;;;4142141;28;20519;-63
2021/01/24 13:32:30;;;;;;;2.70;1.50;;;;;;;;;;4140124;28;20065;-63
2021/01/24 13:34:50;;;;;;;8.80;1.65;;;;;;;;;;4141553;28;20107;-62
2021/01/24 13:37:12;;;;;;;4.80;1.80;;;;;;;;;;4139762;28;20123;-59
2021/01/24 13:39:34;;;;;;;2.67;1.30;;;;;;;;;;4147015;28;20061;-60
2021/01/24 13:41:55;;;;;;;3.67;1.65;;;;;;;;;;4158967;28;20607;-59
2021/01/24 13:44:16;;;;;;;1.88;1.65;;;;;;;;;;4141675;28;20056;-59
2021/01/24 13:46:39;;;;;;;2.90;1.42;;;;;;;;;;4136307;28;20122;-59
2021/01/24 13:49:00;;;;;;;2.65;1.50;;;;;;;;;;4128303;28;20060;-58
2021/01/24 13:51:23;;;;;;;3.22;1.50;;;;;;;;;;4137271;28;20110;-60
2021/01/24 13:53:44;;;;;;;2.15;1.85;;;;;;;;;;4139324;28;20073;-59
2021/01/24 13:56:06;;;;;;;2.20;1.70;;;;;;;;;;4144486;28;20083;-59
2021/01/24 13:58:29;;;;;;;9.10;1.90;;;;;;;;;;4165323;28;20103;-59
2021/01/24 14:00:50;;;;;;;3.95;1.60;;;;;;;;;;4138905;28;20179;-59
2021/01/24 14:05:23;;;;;;;6.35;2.63;;;;;;;;;;4210207;22;20197;-58
2021/01/24 14:07:46;;;;;;;7.60;3.13;;;;;;;;;;4143059;28;20596;-59
2021/01/24 14:10:08;;;;;;;15.15;4.38;;;;;;;;;;4138195;28;20714;-59
2021/01/24 14:12:32;;;;;;;14.68;5.00;;;;;;;;;;4140778;28;20055;-59
2021/01/24 14:14:52;;;;;;;16.00;5.93;;;;;;;;;;4140690;28;20069;-59
2021/01/24 14:17:16;;;;;;;20.60;6.35;;;;;;;;;;4133406;28;20052;-59
2021/01/24 14:19:37;;;;;;;21.67;6.55;;;;;;;;;;4140754;28;20661;-59
2021/01/24 14:21:58;;;;;;;18.77;6.65;;;;;;;;;;4141610;28;20538;-59
2021/01/24 14:24:18;;;;;;;20.30;7.43;;;;;;;;;;4141069;28;20083;-59
2021/01/24 14:26:39;;;;;;;26.70;8.60;;;;;;;;;;4141539;28;20081;-59
2021/01/24 14:29:01;;;;;;;24.25;7.47;;;;;;;;;;4140331;28;20056;-59
2021/01/24 14:31:24;;;;;;;21.10;7.63;;;;;;;;;;4141728;28;20096;-59
2021/01/24 14:33:46;;;;;;;24.02;7.90;;;;;;;;;;4141952;28;20052;-61
2021/01/24 14:36:10;;;;;;;25.73;8.73;;;;;;;;;;4140510;28;20524;-60
2021/01/24 14:38:33;;;;;;;29.60;9.57;;;;;;;;;;4139743;28;20057;-59
2021/01/24 14:40:54;;;;;;;26.08;9.43;;;;;;;;;;4142216;28;20068;-60
2021/01/24 14:43:17;;;;;;;26.70;10.63;;;;;;;;;;4140976;28;20459;-62
2021/01/24 14:45:41;;;;;;;28.80;11.23;;;;;;;;;;4143145;28;20056;-60
2021/01/24 14:48:06;;;;;;;30.17;11.70;;;;;;;;;;4143425;28;20165;-61
2021/01/24 14:50:29;;;;;;;27.55;10.88;;;;;;;;;;4139273;28;20068;-62
2021/01/24 14:52:52;;;;;;;28.85;11.20;;;;;;;;;;4143205;28;20080;-62
2021/01/24 14:55:14;;;;;;;28.35;11.02;;;;;;;;;;4142801;28;20056;-62
2021/01/24 14:57:34;;;;;;;32.03;12.25;;;;;;;;;;4139773;28;20180;-61
2021/01/24 14:59:58;;;;;;;37.47;14.30;;;;;;;;;;4141611;28;20532;-60
2021/01/24 15:02:22;;;;;;;36.03;14.65;;;;;;;;;;4125898;28;20173;-61
2021/01/24 15:04:43;;;;;;;40.97;15.68;;;;;;;;;;4140956;28;20151;-62
2021/01/24 15:07:03;;;;;;;43.17;16.05;;;;;;;;;;4144638;28;20435;-60
2021/01/24 15:09:24;;;;;;;41.03;16.17;;;;;;;;;;4139996;28;20121;-61
2021/01/24 15:11:48;;;;;;;40.80;16.65;;;;;;;;;;4140962;28;20064;-65
2021/01/24 15:14:11;;;;;;;40.72;15.90;;;;;;;;;;4140959;28;20126;-66
2021/01/24 15:16:31;;;;;;;35.90;15.40;;;;;;;;;;4139517;28;20064;-63
2021/01/24 15:18:53;;;;;;;44.72;16.48;;;;;;;;;;4140746;28;20147;-65
2021/01/24 15:21:14;;;;;;;43.85;15.88;;;;;;;;;;4138126;28;20072;-62
2021/01/24 15:23:37;;;;;;;38.05;13.95;;;;;;;;;;4139724;28;20060;-64
2021/01/24 15:25:58;;;;;;;38.83;15.40;;;;;;;;;;4141695;28;20698;-70
2021/01/24 15:28:19;;;;;;;37.58;14.85;;;;;;;;;;4143339;28;20093;-66
2021/01/24 15:30:42;;;;;;;30.02;13.23;;;;;;;;;;4141885;28;20076;-71
2021/01/24 15:33:07;;;;;;;35.45;14.88;;;;;;;;;;4141796;28;20060;-81
2021/01/24 15:35:29;;;;;;;31.27;13.93;;;;;;;;;;4143070;28;20072;-68
2021/01/24 15:37:50;;;;;;;32.47;14.65;;;;;;;;;;4142203;28;20109;-72
2021/01/24 15:40:14;;;;;;;32.20;13.98;;;;;;;;;;4142710;28;20068;-66
2021/01/24 15:42:36;;;;;;;33.92;13.63;;;;;;;;;;4143426;28;20116;-64
2021/01/24 15:44:56;;;;;;;32.85;13.52;;;;;;;;;;4128992;28;20065;-64
2021/01/24 15:47:17;;;;;;;38.33;14.25;;;;;;;;;;4141901;28;20145;-64
2021/01/24 15:49:40;;;;;;;32.63;13.35;;;;;;;;;;4136624;28;20057;-65
2021/01/24 15:52:02;;;;;;;31.75;14.27;;;;;;;;;;4145861;28;20091;-64
2021/01/24 15:54:24;;;;;;;30.88;12.52;;;;;;;;;;4125226;28;20053;-64
2021/01/24 15:56:45;;;;;;;31.23;13.80;;;;;;;;;;4144540;28;20699;-65
2021/01/24 15:59:06;;;;;;;31.35;13.52;;;;;;;;;;4143312;28;20056;-64
2021/01/24 16:01:27;;;;;;;30.15;13.80;;;;;;;;;;4146533;28;20068;-62
2021/01/24 16:03:47;;;;;;;30.75;13.43;;;;;;;;;;4144707;28;20108;-67
2021/01/24 16:06:11;;;;;;;31.27;13.35;;;;;;;;;;4142285;28;20111;-64
2021/01/24 16:08:38;;;;;;;24.52;12.82;;;;;;;;;;4153879;28;20163;-64
2021/01/24 16:11:01;;;;;;;26.73;12.40;;;;;;;;;;4145553;28;20160;-63
2021/01/24 16:13:21;;;;;;;29.63;12.30;;;;;;;;;;4129052;28;20132;-62
2021/01/24 16:15:42;;;;;;;24.95;12.60;;;;;;;;;;4145411;28;20058;-64
2021/01/24 16:18:04;;;;;;;25.92;11.55;;;;;;;;;;4141686;28;20112;-63
2021/01/24 16:20:24;;;;;;;24.88;11.88;;;;;;;;;;4142719;28;20072;-63
2021/01/24 16:22:45;;;;;;;20.13;10.57;;;;;;;;;;4142695;28;20093;-65
2021/01/24 16:25:08;;;;;;;23.77;12.05;;;;;;;;;;4142231;28;20100;-64
2021/01/24 16:27:31;;;;;;;24.58;11.90;;;;;;;;;;4142383;28;20100;-63
2021/01/24 16:29:55;;;;;;;24.45;11.52;;;;;;;;;;4145818;28;20088;-65
2021/01/24 16:32:16;;;;;;;23.63;11.55;;;;;;;;;;4145623;28;20060;-66
2021/01/24 16:34:38;;;;;;;23.52;11.10;;;;;;;;;;4142922;28;20111;-68
2021/01/24 16:37:01;;;;;;;24.45;10.55;;;;;;;;;;4145546;28;20052;-74
2021/01/24 16:39:22;;;;;;;21.92;9.95;;;;;;;;;;4128740;28;20061;-65
2021/01/24 16:41:43;;;;;;;23.75;10.50;;;;;;;;;;4127649;28;20095;-65
2021/01/24 16:44:04;;;;;;;19.20;9.88;;;;;;;;;;4143060;28;20072;-68
2021/01/24 16:46:28;;;;;;;19.58;9.27;;;;;;;;;;4143536;28;20539;-65
2021/01/24 16:48:48;;;;;;;22.83;10.45;;;;;;;;;;4142374;28;20132;-68
2021/01/24 16:51:12;;;;;;;22.20;10.73;;;;;;;;;;4142740;28;20084;-66
2021/01/24 16:53:35;;;;;;;17.33;9.18;;;;;;;;;;4142603;28;20060;-65
2021/01/24 16:55:56;;;;;;;19.30;9.35;;;;;;;;;;4143197;28;20056;-64
2021/01/24 16:58:17;;;;;;;21.23;8.77;;;;;;;;;;4142116;28;20101;-64
2021/01/24 17:00:39;;;;;;;23.83;10.57;;;;;;;;;;4142454;28;20060;-61
2021/01/24 17:03:02;;;;;;;23.35;9.75;;;;;;;;;;4142133;28;20060;-63
2021/01/24 17:05:23;;;;;;;19.45;9.30;;;;;;;;;;4142490;28;20089;-64
2021/01/24 17:07:44;;;;;;;21.55;9.05;;;;;;;;;;4142205;28;20159;-64
2021/01/24 17:10:06;;;;;;;21.85;9.10;;;;;;;;;;4141885;28;20583;-62
2021/01/24 17:12:27;;;;;;;19.05;8.02;;;;;;;;;;4143167;28;20119;-63
2021/01/24 17:14:49;;;;;;;18.75;8.02;;;;;;;;;;4142639;28;20076;-62
2021/01/24 17:17:13;;;;;;;16.95;8.57;;;;;;;;;;4142144;28;20131;-63
2021/01/24 17:19:33;;;;;;;14.50;7.60;;;;;;;;;;4141783;28;20068;-63
2021/01/24 17:21:54;;;;;;;20.40;8.98;;;;;;;;;;4141045;28;20113;-67
2021/01/24 17:24:19;;;;;;;17.92;7.80;;;;;;;;;;4142581;28;20561;-66
2021/01/24 17:26:40;;;;;;;14.52;7.68;;;;;;;;;;4142194;28;20056;-68
2021/01/24 17:29:03;;;;;;;14.52;7.38;;;;;;;;;;4142965;28;20404;-66
2021/01/24 17:31:25;;;;;;;15.45;7.22;;;;;;;;;;4141757;28;20602;-69
2021/01/24 17:33:45;;;;;;;16.85;7.32;;;;;;;;;;4141871;28;20087;-68
2021/01/24 17:36:07;;;;;;;13.18;6.93;;;;;;;;;;4142738;28;20069;-61
2021/01/24 17:38:28;;;;;;;19.13;7.68;;;;;;;;;;4141697;28;20213;-62
2021/01/24 17:40:48;;;;;;;13.88;6.38;;;;;;;;;;4141799;28;20111;-63
2021/01/24 17:43:09;;;;;;;12.20;6.22;;;;;;;;;;4142790;28;20413;-65
2021/01/24 17:45:30;;;;;;;15.00;6.30;;;;;;;;;;4141272;28;20056;-67
2021/01/24 17:47:54;;;;;;;14.15;5.82;;;;;;;;;;4124092;28;20088;-62
2021/01/24 17:50:15;;;;;;;11.90;6.28;;;;;;;;;;4141945;28;20855;-64
2021/01/24 17:52:36;;;;;;;12.18;6.13;;;;;;;;;;4139501;28;20138;-63
2021/01/24 17:54:57;;;;;;;12.35;6.00;;;;;;;;;;4141589;28;20108;-64
2021/01/24 17:57:21;;;;;;;12.93;6.35;;;;;;;;;;4142047;28;20060;-65
2021/01/24 17:59:42;;;;;;;14.15;6.80;;;;;;;;;;4139724;28;20116;-65
2021/01/24 18:02:08;;;;;;;14.50;6.28;;;;;;;;;;4125638;28;20056;-66
2021/01/24 18:04:32;;;;;;;13.63;6.05;;;;;;;;;;4122904;28;20093;-67
2021/01/24 18:06:53;;;;;;;11.30;5.78;;;;;;;;;;4139524;28;20048;-65
2021/01/24 18:09:16;;;;;;;13.77;5.22;;;;;;;;;;4139119;28;20535;-64
2021/01/24 18:11:39;;;;;;;10.95;5.80;;;;;;;;;;4139308;28;20540;-64
2021/01/24 18:13:59;;;;;;;15.07;5.75;;;;;;;;;;4138618;28;20073;-63
2021/01/24 18:16:20;;;;;;;11.43;5.88;;;;;;;;;;4138141;28;20172;-62
2021/01/24 18:18:42;;;;;;;8.75;4.65;;;;;;;;;;4124433;28;20065;-63
2021/01/24 18:21:05;;;;;;;11.32;5.65;;;;;;;;;;4125330;28;20549;-63
2021/01/24 18:23:28;;;;;;;9.68;5.18;;;;;;;;;;4125091;28;20076;-63
2021/01/24 18:25:48;;;;;;;10.60;5.65;;;;;;;;;;4123910;28;20061;-63
2021/01/24 18:28:09;;;;;;;9.13;5.47;;;;;;;;;;4124079;28;20122;-63
2021/01/24 18:30:33;;;;;;;7.30;4.78;;;;;;;;;;4124200;28;20093;-63
2021/01/24 18:32:57;;;;;;;10.70;5.55;;;;;;;;;;4125341;28;20417;-63
2021/01/24 18:35:21;;;;;;;9.77;5.10;;;;;;;;;;4125203;28;20692;-63
2021/01/24 18:37:45;;;;;;;9.40;5.00;;;;;;;;;;4124997;28;20409;-63
2021/01/24 18:40:06;;;;;;;10.07;4.78;;;;;;;;;;4124150;28;20747;-63
2021/01/24 18:42:27;;;;;;;12.30;5.22;;;;;;;;;;4124717;28;20116;-63
2021/01/24 18:44:51;;;;;;;9.70;5.45;;;;;;;;;;4124484;28;20584;-63
2021/01/24 18:47:15;;;;;;;10.20;5.00;;;;;;;;;;4124736;28;20057;-63
2021/01/24 18:49:35;;;;;;;8.90;4.53;;;;;;;;;;4124421;28;20109;-63
2021/01/24 18:51:56;;;;;;;9.45;5.20;;;;;;;;;;4140035;28;20161;-63
2021/01/24 18:54:20;;;;;;;10.93;5.53;;;;;;;;;;4141396;28;20077;-63
2021/01/24 18:56:41;;;;;;;7.00;4.57;;;;;;;;;;4140714;28;20057;-63
2021/01/24 18:59:02;;;;;;;12.63;4.85;;;;;;;;;;4144551;28;20060;-63
2021/01/24 19:01:23;;;;;;;9.18;4.65;;;;;;;;;;4135480;28;20186;-63
2021/01/24 19:03:44;;;;;;;10.18;4.50;;;;;;;;;;4126664;28;20096;-63
2021/01/24 19:06:07;;;;;;;6.85;4.22;;;;;;;;;;4128582;28;20057;-63
2021/01/24 19:08:28;;;;;;;8.52;4.18;;;;;;;;;;4126685;28;20634;-63
2021/01/24 19:10:49;;;;;;;6.95;4.22;;;;;;;;;;4128072;28;20480;-63
2021/01/24 19:13:12;;;;;;;10.45;4.95;;;;;;;;;;4127846;28;20120;-63
2021/01/24 19:15:37;;;;;;;8.65;4.85;;;;;;;;;;4128203;28;20081;-63
2021/01/24 19:18:00;;;;;;;8.45;4.20;;;;;;;;;;4127644;28;20088;-63
2021/01/24 19:20:23;;;;;;;8.95;4.57;;;;;;;;;;4142137;28;20540;-63
2021/01/24 19:22:43;;;;;;;7.95;4.47;;;;;;;;;;4142992;28;20068;-63
2021/01/24 19:25:05;;;;;;;5.78;3.85;;;;;;;;;;4141886;28;20061;-68
2021/01/24 19:27:29;;;;;;;7.20;3.72;;;;;;;;;;4142221;28;20565;-65
2021/01/24 19:29:50;;;;;;;8.07;4.03;;;;;;;;;;4142456;28;20771;-68
2021/01/24 19:32:11;;;;;;;7.80;3.67;;;;;;;;;;4127124;28;20772;-62
2021/01/24 19:34:32;;;;;;;;;;;;;;;;;;4140182;28;20088;-65
2021/01/24 19:36:55;;;;;;;7.25;4.03;;;;;;;;;;4138907;28;20024;-67
2021/01/24 19:39:18;;;;;;;7.47;4.10;;;;;;;;;;4125478;28;20088;-63
2021/01/24 19:41:41;;;;;;;8.18;4.00;;;;;;;;;;4141469;28;20053;-67
2021/01/24 19:44:04;;;;;;;8.02;3.85;;;;;;;;;;4125869;28;20065;-66
2021/01/24 19:46:24;;;;;;;9.90;3.85;;;;;;;;;;4141173;28;20137;-63
2021/01/24 19:48:45;;;;;;;8.63;4.35;;;;;;;;;;4140968;28;20112;-62
2021/01/24 19:51:06;;;;;;;11.98;3.72;;;;;;;;;;4142704;28;20064;-62
2021/01/24 19:53:29;;;;;;;6.57;4.95;;;;;;;;;;4141499;28;20116;-59
2021/01/24 19:55:51;;;;;;;7.68;6.80;;;;;;;;;;4144674;28;20400;-59
2021/01/24 19:58:11;;;;;;;6.18;5.55;;;;;;;;;;4142074;28;20519;-58
2021/01/24 20:00:33;;;;;;;6.10;5.60;;;;;;;;;;4142206;28;20061;-58
2021/01/24 20:02:55;;;;;;;5.80;5.30;;;;;;;;;;4143912;28;20479;-59
